Aiseau, Belgium
Current Conditions -  °F | °C
As of 6:50 PM on Tuesday 21 Oct 2014 (Local Time) from EBCI Reporting Station
Rain Showers Rain Showers  
Wind Chill: 42°   Ceiling: 4000
Heat Index: 46°   Visibility: 6mi
Dew Point: 41°   Wind: 8mph
Humidity: 81%   Direction: 280°W
Pressure: 29.77"   Gusts: NA
Location:  50.41°N, 4.59°E
Report Text: EBCI 211650Z 28007KT 230V330 9999 -SHRA FEW022 BKN040 08/05 Q1008 TEMPO 27015G25KT
Loading
Personal Weather Stations






























Interactive Weather Map
Tropical Storm Tracking
New forecast layout! Learn more

10-Day Weather Forecast

Advertisements
Track Severe Weather on mobile